KRNC/RNC METAR and TAF weather

Enter ICAO airport designator
Station Type Date Time Source
KRNC METAR 2020/04/03 23:55 UTC NOAA

KRNC 032355Z AUTO 01004KT 10SM BKN120 19/04 A2998 RMK A01


Station Type Date Time Source
KRNC Decoded METAR 2020/04/03 23:55 UTC NOAA

Station name not available
Apr 03, 2020 - 07:55 PM EDT / 2020.04.03 2355 UTC
Wind: from the N (010 degrees) at 5 MPH (4 KT):0
Visibility: 10 mile(s):0
Sky conditions: mostly cloudy
Temperature: 66 F (19 C)
Dew Point: 39 F (4 C)
Relative Humidity: 37%
Pressure (altimeter): 29.98 in. Hg (1015 hPa)
ob: KRNC 032355Z AUTO 01004KT 10SM BKN120 19/04 A2998 RMK A01
cycle: 0

Station Type Date Time Source
KRNC TAF 2009/08/31 19:45 UTC NOAA

METAR KRNC 311945Z AUTO 35008KT 10SM CLR 25/12 A3011
RMK AO1 T02500116 $

Example: see airport list